sensor_id;sensor_type;location;lat;lon;timestamp;P1;durP1;ratioP1;P2;durP2;ratioP2
65230;SDS011;51813;40.666;16.602;2023-05-10T00:02:08;9.88;;;7.00;;
65230;SDS011;51813;40.666;16.602;2023-05-10T00:04:34;11.27;;;7.30;;
65230;SDS011;51813;40.666;16.602;2023-05-10T00:07:00;9.15;;;6.95;;
65230;SDS011;51813;40.666;16.602;2023-05-10T00:09:26;9.68;;;7.30;;
65230;SDS011;51813;40.666;16.602;2023-05-10T00:11:52;9.45;;;6.97;;
65230;SDS011;51813;40.666;16.602;2023-05-10T00:14:18;10.27;;;7.15;;
65230;SDS011;51813;40.666;16.602;2023-05-10T00:16:43;9.18;;;6.80;;
65230;SDS011;51813;40.666;16.602;2023-05-10T00:19:09;8.48;;;7.05;;
65230;SDS011;51813;40.666;16.602;2023-05-10T00:21:35;10.15;;;6.93;;
65230;SDS011;51813;40.666;16.602;2023-05-10T00:24:01;11.05;;;7.05;;
65230;SDS011;51813;40.666;16.602;2023-05-10T00:26:27;9.48;;;6.85;;
65230;SDS011;51813;40.666;16.602;2023-05-10T00:28:53;10.00;;;6.88;;
65230;SDS011;51813;40.666;16.602;2023-05-10T00:31:18;9.48;;;6.88;;
65230;SDS011;51813;40.666;16.602;2023-05-10T00:33:44;8.55;;;6.60;;
65230;SDS011;51813;40.666;16.602;2023-05-10T00:36:10;9.98;;;6.82;;
65230;SDS011;51813;40.666;16.602;2023-05-10T00:38:36;9.02;;;6.65;;
65230;SDS011;51813;40.666;16.602;2023-05-10T00:41:02;9.13;;;6.75;;
65230;SDS011;51813;40.666;16.602;2023-05-10T00:43:28;9.95;;;6.78;;
65230;SDS011;51813;40.666;16.602;2023-05-10T00:45:54;8.82;;;6.68;;
65230;SDS011;51813;40.666;16.602;2023-05-10T00:48:20;9.20;;;6.78;;
65230;SDS011;51813;40.666;16.602;2023-05-10T00:50:47;9.73;;;6.90;;
65230;SDS011;51813;40.666;16.602;2023-05-10T00:53:12;10.00;;;6.95;;
65230;SDS011;51813;40.666;16.602;2023-05-10T00:55:39;9.70;;;6.53;;
65230;SDS011;51813;40.666;16.602;2023-05-10T00:58:04;8.63;;;6.47;;
65230;SDS011;51813;40.666;16.602;2023-05-10T01:00:31;9.27;;;6.57;;
65230;SDS011;51813;40.666;16.602;2023-05-10T01:02:58;8.93;;;6.55;;
65230;SDS011;51813;40.666;16.602;2023-05-10T01:05:24;8.48;;;6.35;;
65230;SDS011;51813;40.666;16.602;2023-05-10T01:07:50;9.15;;;6.63;;
65230;SDS011;51813;40.666;16.602;2023-05-10T01:10:16;9.07;;;7.03;;
65230;SDS011;51813;40.666;16.602;2023-05-10T01:12:42;8.80;;;6.63;;
65230;SDS011;51813;40.666;16.602;2023-05-10T01:15:10;10.32;;;7.03;;
65230;SDS011;51813;40.666;16.602;2023-05-10T01:17:37;10.05;;;6.90;;
65230;SDS011;51813;40.666;16.602;2023-05-10T01:20:05;10.65;;;7.15;;
65230;SDS011;51813;40.666;16.602;2023-05-10T01:39:16;9.88;;;6.82;;
65230;SDS011;51813;40.666;16.602;2023-05-10T01:41:56;8.30;;;6.22;;
65230;SDS011;51813;40.666;16.602;2023-05-10T01:44:31;9.27;;;6.60;;
65230;SDS011;51813;40.666;16.602;2023-05-10T01:47:12;9.63;;;6.00;;
65230;SDS011;51813;40.666;16.602;2023-05-10T01:49:52;8.70;;;6.50;;
65230;SDS011;51813;40.666;16.602;2023-05-10T01:52:22;9.20;;;6.72;;
65230;SDS011;51813;40.666;16.602;2023-05-10T01:54:55;9.23;;;7.00;;
65230;SDS011;51813;40.666;16.602;2023-05-10T01:59:58;8.95;;;6.45;;
65230;SDS011;51813;40.666;16.602;2023-05-10T02:02:26;9.15;;;6.70;;
65230;SDS011;51813;40.666;16.602;2023-05-10T02:04:54;9.57;;;6.65;;
65230;SDS011;51813;40.666;16.602;2023-05-10T02:07:22;7.72;;;6.15;;
65230;SDS011;51813;40.666;16.602;2023-05-10T02:09:49;9.27;;;6.50;;
65230;SDS011;51813;40.666;16.602;2023-05-10T02:12:16;8.20;;;6.20;;
65230;SDS011;51813;40.666;16.602;2023-05-10T02:14:43;8.32;;;6.22;;
65230;SDS011;51813;40.666;16.602;2023-05-10T02:17:10;8.05;;;6.38;;
65230;SDS011;51813;40.666;16.602;2023-05-10T02:19:37;10.35;;;6.90;;
65230;SDS011;51813;40.666;16.602;2023-05-10T02:22:05;8.52;;;6.47;;
65230;SDS011;51813;40.666;16.602;2023-05-10T02:24:33;8.93;;;6.47;;
65230;SDS011;51813;40.666;16.602;2023-05-10T02:27:01;8.40;;;6.43;;
65230;SDS011;51813;40.666;16.602;2023-05-10T02:29:29;9.55;;;6.80;;
65230;SDS011;51813;40.666;16.602;2023-05-10T02:31:57;8.43;;;6.28;;
65230;SDS011;51813;40.666;16.602;2023-05-10T02:34:24;7.88;;;6.13;;
65230;SDS011;51813;40.666;16.602;2023-05-10T02:36:52;8.95;;;6.47;;
65230;SDS011;51813;40.666;16.602;2023-05-10T02:39:20;8.55;;;6.57;;
65230;SDS011;51813;40.666;16.602;2023-05-10T02:41:48;8.85;;;6.20;;
65230;SDS011;51813;40.666;16.602;2023-05-10T02:44:15;8.18;;;6.35;;
65230;SDS011;51813;40.666;16.602;2023-05-10T02:46:43;8.70;;;6.20;;
65230;SDS011;51813;40.666;16.602;2023-05-10T02:49:10;9.02;;;6.40;;
65230;SDS011;51813;40.666;16.602;2023-05-10T02:51:36;8.57;;;6.43;;
65230;SDS011;51813;40.666;16.602;2023-05-10T02:54:19;8.50;;;6.05;;
65230;SDS011;51813;40.666;16.602;2023-05-10T02:56:52;8.98;;;6.55;;
65230;SDS011;51813;40.666;16.602;2023-05-10T02:59:22;7.88;;;5.90;;
65230;SDS011;51813;40.666;16.602;2023-05-10T03:01:47;8.95;;;6.85;;
65230;SDS011;51813;40.666;16.602;2023-05-10T03:04:13;9.10;;;6.68;;
65230;SDS011;51813;40.666;16.602;2023-05-10T03:06:39;8.75;;;6.72;;
65230;SDS011;51813;40.666;16.602;2023-05-10T03:09:04;7.93;;;6.10;;
65230;SDS011;51813;40.666;16.602;2023-05-10T03:17:10;9.95;;;6.78;;
65230;SDS011;51813;40.666;16.602;2023-05-10T03:22:10;9.57;;;7.10;;
65230;SDS011;51813;40.666;16.602;2023-05-10T03:24:38;8.45;;;6.20;;
65230;SDS011;51813;40.666;16.602;2023-05-10T03:27:06;9.57;;;6.75;;
65230;SDS011;51813;40.666;16.602;2023-05-10T03:29:33;8.10;;;5.97;;
65230;SDS011;51813;40.666;16.602;2023-05-10T03:31:59;8.85;;;6.47;;
65230;SDS011;51813;40.666;16.602;2023-05-10T03:34:25;8.20;;;6.55;;
65230;SDS011;51813;40.666;16.602;2023-05-10T03:36:51;8.95;;;6.97;;
65230;SDS011;51813;40.666;16.602;2023-05-10T03:39:17;8.45;;;6.25;;
65230;SDS011;51813;40.666;16.602;2023-05-10T03:41:43;9.07;;;6.93;;
65230;SDS011;51813;40.666;16.602;2023-05-10T03:44:08;8.73;;;6.18;;
65230;SDS011;51813;40.666;16.602;2023-05-10T03:46:34;9.77;;;6.95;;
65230;SDS011;51813;40.666;16.602;2023-05-10T03:49:00;8.68;;;6.65;;
65230;SDS011;51813;40.666;16.602;2023-05-10T03:51:25;8.93;;;6.32;;
65230;SDS011;51813;40.666;16.602;2023-05-10T03:53:53;9.63;;;7.25;;
65230;SDS011;51813;40.666;16.602;2023-05-10T03:56:19;10.13;;;6.85;;
65230;SDS011;51813;40.666;16.602;2023-05-10T03:58:45;8.27;;;6.18;;
65230;SDS011;51813;40.666;16.602;2023-05-10T04:01:11;10.13;;;6.72;;
65230;SDS011;51813;40.666;16.602;2023-05-10T04:03:37;9.60;;;7.00;;
65230;SDS011;51813;40.666;16.602;2023-05-10T04:06:03;11.32;;;7.50;;
65230;SDS011;51813;40.666;16.602;2023-05-10T04:08:29;8.65;;;6.35;;
65230;SDS011;51813;40.666;16.602;2023-05-10T04:11:04;11.00;;;6.72;;
65230;SDS011;51813;40.666;16.602;2023-05-10T04:13:33;9.15;;;6.75;;
65230;SDS011;51813;40.666;16.602;2023-05-10T04:15:59;10.15;;;7.18;;
65230;SDS011;51813;40.666;16.602;2023-05-10T04:18:25;9.25;;;7.03;;
65230;SDS011;51813;40.666;16.602;2023-05-10T04:20:51;10.13;;;6.68;;
65230;SDS011;51813;40.666;16.602;2023-05-10T04:23:17;9.57;;;7.20;;
65230;SDS011;51813;40.666;16.602;2023-05-10T04:25:42;10.68;;;7.30;;
65230;SDS011;51813;40.666;16.602;2023-05-10T04:28:08;9.25;;;6.85;;
65230;SDS011;51813;40.666;16.602;2023-05-10T04:30:34;9.90;;;7.28;;
65230;SDS011;51813;40.666;16.602;2023-05-10T04:33:00;9.90;;;7.15;;
65230;SDS011;51813;40.666;16.602;2023-05-10T04:35:29;9.52;;;7.43;;
65230;SDS011;51813;40.666;16.602;2023-05-10T04:37:55;10.57;;;7.18;;
65230;SDS011;51813;40.666;16.602;2023-05-10T04:40:21;10.80;;;7.40;;
65230;SDS011;51813;40.666;16.602;2023-05-10T04:42:46;9.98;;;6.90;;
65230;SDS011;51813;40.666;16.602;2023-05-10T04:45:12;11.02;;;7.40;;
65230;SDS011;51813;40.666;16.602;2023-05-10T04:47:39;12.25;;;7.65;;
65230;SDS011;51813;40.666;16.602;2023-05-10T04:50:05;9.68;;;6.75;;
65230;SDS011;51813;40.666;16.602;2023-05-10T04:52:32;8.55;;;6.63;;
65230;SDS011;51813;40.666;16.602;2023-05-10T04:54:58;11.48;;;7.60;;
65230;SDS011;51813;40.666;16.602;2023-05-10T04:57:23;11.25;;;7.45;;
65230;SDS011;51813;40.666;16.602;2023-05-10T04:59:49;11.00;;;7.20;;
65230;SDS011;51813;40.666;16.602;2023-05-10T05:02:15;9.77;;;7.32;;
65230;SDS011;51813;40.666;16.602;2023-05-10T05:04:40;12.35;;;7.72;;
65230;SDS011;51813;40.666;16.602;2023-05-10T05:07:06;10.23;;;7.22;;
65230;SDS011;51813;40.666;16.602;2023-05-10T05:09:32;10.32;;;7.28;;
65230;SDS011;51813;40.666;16.602;2023-05-10T05:11:57;9.98;;;7.57;;
65230;SDS011;51813;40.666;16.602;2023-05-10T05:14:23;10.77;;;7.55;;
65230;SDS011;51813;40.666;16.602;2023-05-10T05:16:50;10.13;;;6.97;;
65230;SDS011;51813;40.666;16.602;2023-05-10T05:19:17;11.07;;;7.15;;
65230;SDS011;51813;40.666;16.602;2023-05-10T05:21:42;10.50;;;7.20;;
65230;SDS011;51813;40.666;16.602;2023-05-10T05:24:08;10.60;;;7.40;;
65230;SDS011;51813;40.666;16.602;2023-05-10T05:26:35;10.63;;;7.50;;
65230;SDS011;51813;40.666;16.602;2023-05-10T05:29:01;11.57;;;6.97;;
65230;SDS011;51813;40.666;16.602;2023-05-10T05:31:27;10.30;;;7.03;;
65230;SDS011;51813;40.666;16.602;2023-05-10T05:33:53;10.15;;;6.60;;
65230;SDS011;51813;40.666;16.602;2023-05-10T05:36:20;10.00;;;6.80;;
65230;SDS011;51813;40.666;16.602;2023-05-10T05:38:46;9.48;;;6.85;;
65230;SDS011;51813;40.666;16.602;2023-05-10T05:41:12;10.23;;;7.00;;
65230;SDS011;51813;40.666;16.602;2023-05-10T05:43:37;9.05;;;6.80;;
65230;SDS011;51813;40.666;16.602;2023-05-10T05:46:03;11.38;;;7.28;;
65230;SDS011;51813;40.666;16.602;2023-05-10T05:48:29;11.32;;;7.78;;
65230;SDS011;51813;40.666;16.602;2023-05-10T05:50:56;9.95;;;7.30;;
65230;SDS011;51813;40.666;16.602;2023-05-10T05:53:22;9.45;;;6.93;;
65230;SDS011;51813;40.666;16.602;2023-05-10T05:55:51;10.90;;;6.93;;
65230;SDS011;51813;40.666;16.602;2023-05-10T05:58:19;10.75;;;7.30;;
65230;SDS011;51813;40.666;16.602;2023-05-10T06:00:44;11.35;;;8.00;;
65230;SDS011;51813;40.666;16.602;2023-05-10T06:03:10;11.73;;;7.95;;
65230;SDS011;51813;40.666;16.602;2023-05-10T06:05:36;10.82;;;7.43;;
65230;SDS011;51813;40.666;16.602;2023-05-10T06:08:02;10.75;;;7.50;;
65230;SDS011;51813;40.666;16.602;2023-05-10T06:10:27;11.23;;;7.70;;
65230;SDS011;51813;40.666;16.602;2023-05-10T06:12:53;13.10;;;8.13;;
65230;SDS011;51813;40.666;16.602;2023-05-10T06:15:19;11.02;;;7.90;;
65230;SDS011;51813;40.666;16.602;2023-05-10T06:17:44;14.00;;;8.15;;
65230;SDS011;51813;40.666;16.602;2023-05-10T06:20:12;10.27;;;7.55;;
65230;SDS011;51813;40.666;16.602;2023-05-10T06:22:38;12.10;;;8.10;;
65230;SDS011;51813;40.666;16.602;2023-05-10T06:25:04;11.32;;;7.82;;
65230;SDS011;51813;40.666;16.602;2023-05-10T06:27:30;12.77;;;8.38;;
65230;SDS011;51813;40.666;16.602;2023-05-10T06:29:55;11.63;;;7.47;;
65230;SDS011;51813;40.666;16.602;2023-05-10T06:32:21;10.32;;;7.75;;
65230;SDS011;51813;40.666;16.602;2023-05-10T06:34:47;10.63;;;7.40;;
65230;SDS011;51813;40.666;16.602;2023-05-10T06:37:12;12.23;;;8.50;;
65230;SDS011;51813;40.666;16.602;2023-05-10T06:39:38;12.48;;;8.15;;
65230;SDS011;51813;40.666;16.602;2023-05-10T06:42:04;10.88;;;7.80;;
65230;SDS011;51813;40.666;16.602;2023-05-10T06:44:30;12.73;;;7.53;;
65230;SDS011;51813;40.666;16.602;2023-05-10T06:46:55;14.85;;;8.05;;
65230;SDS011;51813;40.666;16.602;2023-05-10T06:49:21;10.65;;;7.22;;
65230;SDS011;51813;40.666;16.602;2023-05-10T06:51:47;9.43;;;7.00;;
65230;SDS011;51813;40.666;16.602;2023-05-10T06:54:13;10.10;;;7.65;;
65230;SDS011;51813;40.666;16.602;2023-05-10T06:56:39;15.98;;;8.10;;
65230;SDS011;51813;40.666;16.602;2023-05-10T06:59:04;12.80;;;7.57;;
65230;SDS011;51813;40.666;16.602;2023-05-10T07:01:30;15.85;;;8.40;;
65230;SDS011;51813;40.666;16.602;2023-05-10T07:03:56;15.38;;;8.63;;
65230;SDS011;51813;40.666;16.602;2023-05-10T07:06:21;12.00;;;7.40;;
65230;SDS011;51813;40.666;16.602;2023-05-10T07:08:47;14.60;;;8.98;;
65230;SDS011;51813;40.666;16.602;2023-05-10T07:11:13;11.60;;;7.50;;
65230;SDS011;51813;40.666;16.602;2023-05-10T07:13:38;12.23;;;7.05;;
65230;SDS011;51813;40.666;16.602;2023-05-10T07:16:06;13.95;;;7.78;;
65230;SDS011;51813;40.666;16.602;2023-05-10T07:18:32;16.50;;;8.00;;
65230;SDS011;51813;40.666;16.602;2023-05-10T07:20:58;18.38;;;8.82;;
65230;SDS011;51813;40.666;16.602;2023-05-10T07:23:24;14.13;;;7.78;;
65230;SDS011;51813;40.666;16.602;2023-05-10T07:25:50;16.10;;;8.32;;
65230;SDS011;51813;40.666;16.602;2023-05-10T07:28:17;14.77;;;7.63;;
65230;SDS011;51813;40.666;16.602;2023-05-10T07:30:43;12.55;;;8.32;;
65230;SDS011;51813;40.666;16.602;2023-05-10T07:33:09;13.32;;;7.35;;
65230;SDS011;51813;40.666;16.602;2023-05-10T07:35:36;15.73;;;9.13;;
65230;SDS011;51813;40.666;16.602;2023-05-10T07:38:02;12.68;;;7.53;;
65230;SDS011;51813;40.666;16.602;2023-05-10T07:40:28;15.18;;;9.02;;
65230;SDS011;51813;40.666;16.602;2023-05-10T07:42:54;11.88;;;8.02;;
65230;SDS011;51813;40.666;16.602;2023-05-10T07:45:19;12.27;;;7.68;;
65230;SDS011;51813;40.666;16.602;2023-05-10T07:47:45;13.00;;;7.88;;
65230;SDS011;51813;40.666;16.602;2023-05-10T07:50:11;15.00;;;9.63;;
65230;SDS011;51813;40.666;16.602;2023-05-10T07:52:36;15.13;;;9.18;;
65230;SDS011;51813;40.666;16.602;2023-05-10T07:55:02;16.08;;;9.13;;
65230;SDS011;51813;40.666;16.602;2023-05-10T07:57:28;14.90;;;8.98;;
65230;SDS011;51813;40.666;16.602;2023-05-10T07:59:54;16.13;;;9.45;;
65230;SDS011;51813;40.666;16.602;2023-05-10T08:02:19;15.13;;;8.25;;
65230;SDS011;51813;40.666;16.602;2023-05-10T08:04:45;15.18;;;9.00;;
65230;SDS011;51813;40.666;16.602;2023-05-10T08:07:11;17.35;;;8.93;;
65230;SDS011;51813;40.666;16.602;2023-05-10T08:12:04;14.50;;;9.15;;
65230;SDS011;51813;40.666;16.602;2023-05-10T08:14:30;16.20;;;8.65;;
65230;SDS011;51813;40.666;16.602;2023-05-10T08:16:56;12.88;;;8.02;;
65230;SDS011;51813;40.666;16.602;2023-05-10T08:19:22;14.27;;;9.05;;
65230;SDS011;51813;40.666;16.602;2023-05-10T08:21:48;15.27;;;8.73;;
65230;SDS011;51813;40.666;16.602;2023-05-10T08:24:14;13.95;;;8.82;;
65230;SDS011;51813;40.666;16.602;2023-05-10T08:26:40;16.30;;;9.30;;
65230;SDS011;51813;40.666;16.602;2023-05-10T08:29:05;16.05;;;9.27;;
65230;SDS011;51813;40.666;16.602;2023-05-10T08:31:31;15.32;;;9.23;;
65230;SDS011;51813;40.666;16.602;2023-05-10T08:33:57;16.20;;;10.27;;
65230;SDS011;51813;40.666;16.602;2023-05-10T08:36:23;16.15;;;10.07;;
65230;SDS011;51813;40.666;16.602;2023-05-10T08:38:52;15.52;;;10.07;;
65230;SDS011;51813;40.666;16.602;2023-05-10T08:41:21;15.30;;;10.55;;
65230;SDS011;51813;40.666;16.602;2023-05-10T08:43:52;16.58;;;10.70;;
65230;SDS011;51813;40.666;16.602;2023-05-10T08:46:19;18.25;;;11.02;;
65230;SDS011;51813;40.666;16.602;2023-05-10T08:48:46;19.63;;;11.30;;
65230;SDS011;51813;40.666;16.602;2023-05-10T08:51:14;15.43;;;10.63;;
65230;SDS011;51813;40.666;16.602;2023-05-10T08:53:42;17.67;;;10.85;;
65230;SDS011;51813;40.666;16.602;2023-05-10T08:56:09;18.67;;;11.00;;
65230;SDS011;51813;40.666;16.602;2023-05-10T08:58:36;18.05;;;10.57;;
65230;SDS011;51813;40.666;16.602;2023-05-10T09:01:02;15.60;;;10.32;;
65230;SDS011;51813;40.666;16.602;2023-05-10T09:03:29;13.52;;;9.32;;
65230;SDS011;51813;40.666;16.602;2023-05-10T09:05:55;15.27;;;10.00;;
65230;SDS011;51813;40.666;16.602;2023-05-10T09:08:21;16.52;;;10.52;;
65230;SDS011;51813;40.666;16.602;2023-05-10T09:10:50;15.30;;;9.82;;
65230;SDS011;51813;40.666;16.602;2023-05-10T09:13:17;14.60;;;9.43;;
65230;SDS011;51813;40.666;16.602;2023-05-10T09:15:43;13.20;;;9.15;;
65230;SDS011;51813;40.666;16.602;2023-05-10T09:18:10;14.60;;;9.02;;
65230;SDS011;51813;40.666;16.602;2023-05-10T09:20:35;14.82;;;9.63;;
65230;SDS011;51813;40.666;16.602;2023-05-10T09:23:01;14.48;;;9.50;;
65230;SDS011;51813;40.666;16.602;2023-05-10T09:25:27;13.45;;;9.10;;
65230;SDS011;51813;40.666;16.602;2023-05-10T09:27:53;13.63;;;9.40;;
65230;SDS011;51813;40.666;16.602;2023-05-10T09:30:25;14.63;;;9.98;;
65230;SDS011;51813;40.666;16.602;2023-05-10T09:32:52;14.00;;;9.32;;
65230;SDS011;51813;40.666;16.602;2023-05-10T09:35:20;13.05;;;9.57;;
65230;SDS011;51813;40.666;16.602;2023-05-10T09:37:47;15.90;;;9.60;;
65230;SDS011;51813;40.666;16.602;2023-05-10T09:40:15;12.43;;;8.88;;
65230;SDS011;51813;40.666;16.602;2023-05-10T09:42:55;12.82;;;9.30;;
65230;SDS011;51813;40.666;16.602;2023-05-10T09:45:26;11.27;;;8.23;;
65230;SDS011;51813;40.666;16.602;2023-05-10T09:47:53;13.75;;;9.05;;
65230;SDS011;51813;40.666;16.602;2023-05-10T09:50:19;10.68;;;8.07;;
65230;SDS011;51813;40.666;16.602;2023-05-10T09:52:49;12.48;;;7.90;;
65230;SDS011;51813;40.666;16.602;2023-05-10T09:55:24;13.52;;;8.90;;
65230;SDS011;51813;40.666;16.602;2023-05-10T09:58:00;10.30;;;7.50;;
65230;SDS011;51813;40.666;16.602;2023-05-10T10:00:27;14.00;;;7.63;;
65230;SDS011;51813;40.666;16.602;2023-05-10T10:02:57;9.70;;;7.38;;
65230;SDS011;51813;40.666;16.602;2023-05-10T10:05:30;11.73;;;6.82;;
65230;SDS011;51813;40.666;16.602;2023-05-10T10:08:00;13.23;;;7.45;;
65230;SDS011;51813;40.666;16.602;2023-05-10T10:10:31;10.07;;;7.38;;
65230;SDS011;51813;40.666;16.602;2023-05-10T10:12:57;10.55;;;6.93;;
65230;SDS011;51813;40.666;16.602;2023-05-10T10:15:23;9.48;;;6.85;;
65230;SDS011;51813;40.666;16.602;2023-05-10T10:17:50;10.43;;;6.10;;
65230;SDS011;51813;40.666;16.602;2023-05-10T10:20:17;11.27;;;6.40;;
65230;SDS011;51813;40.666;16.602;2023-05-10T10:22:44;9.13;;;6.40;;
65230;SDS011;51813;40.666;16.602;2023-05-10T10:25:11;9.30;;;6.18;;
65230;SDS011;51813;40.666;16.602;2023-05-10T10:36:03;11.07;;;6.28;;
65230;SDS011;51813;40.666;16.602;2023-05-10T10:39:07;8.20;;;6.18;;
65230;SDS011;51813;40.666;16.602;2023-05-10T10:41:35;10.60;;;6.20;;
65230;SDS011;51813;40.666;16.602;2023-05-10T10:47:06;9.23;;;5.75;;
65230;SDS011;51813;40.666;16.602;2023-05-10T10:54:58;10.55;;;6.53;;
65230;SDS011;51813;40.666;16.602;2023-05-10T11:02:50;7.75;;;5.82;;
65230;SDS011;51813;40.666;16.602;2023-05-10T11:10:51;7.45;;;5.53;;
65230;SDS011;51813;40.666;16.602;2023-05-10T11:13:26;8.77;;;5.70;;
65230;SDS011;51813;40.666;16.602;2023-05-10T11:15:57;8.00;;;6.00;;
65230;SDS011;51813;40.666;16.602;2023-05-10T11:18:28;8.35;;;5.70;;
65230;SDS011;51813;40.666;16.602;2023-05-10T11:23:20;11.48;;;5.53;;
65230;SDS011;51813;40.666;16.602;2023-05-10T11:25:47;7.82;;;5.45;;
65230;SDS011;51813;40.666;16.602;2023-05-10T11:28:14;8.23;;;5.50;;
65230;SDS011;51813;40.666;16.602;2023-05-10T11:30:42;6.78;;;5.13;;
65230;SDS011;51813;40.666;16.602;2023-05-10T11:33:09;8.43;;;5.50;;
65230;SDS011;51813;40.666;16.602;2023-05-10T11:35:40;6.97;;;5.35;;
65230;SDS011;51813;40.666;16.602;2023-05-10T11:38:06;9.10;;;5.90;;
65230;SDS011;51813;40.666;16.602;2023-05-10T11:40:36;7.97;;;5.80;;
65230;SDS011;51813;40.666;16.602;2023-05-10T11:43:03;8.93;;;5.78;;
65230;SDS011;51813;40.666;16.602;2023-05-10T11:45:29;8.18;;;5.07;;
65230;SDS011;51813;40.666;16.602;2023-05-10T11:47:58;8.48;;;5.38;;
65230;SDS011;51813;40.666;16.602;2023-05-10T11:50:24;6.80;;;4.97;;
65230;SDS011;51813;40.666;16.602;2023-05-10T11:52:54;6.93;;;5.30;;
65230;SDS011;51813;40.666;16.602;2023-05-10T11:55:21;6.80;;;4.72;;
65230;SDS011;51813;40.666;16.602;2023-05-10T11:57:51;6.63;;;4.80;;
65230;SDS011;51813;40.666;16.602;2023-05-10T12:00:17;6.40;;;5.03;;
65230;SDS011;51813;40.666;16.602;2023-05-10T12:02:43;6.50;;;4.72;;
65230;SDS011;51813;40.666;16.602;2023-05-10T12:05:09;7.57;;;5.05;;
65230;SDS011;51813;40.666;16.602;2023-05-10T12:07:35;7.03;;;4.97;;
65230;SDS011;51813;40.666;16.602;2023-05-10T12:10:08;6.82;;;5.10;;
65230;SDS011;51813;40.666;16.602;2023-05-10T12:12:43;6.45;;;4.53;;
65230;SDS011;51813;40.666;16.602;2023-05-10T12:15:10;7.03;;;4.75;;
65230;SDS011;51813;40.666;16.602;2023-05-10T12:17:43;6.30;;;4.60;;
65230;SDS011;51813;40.666;16.602;2023-05-10T12:20:30;7.07;;;4.80;;
65230;SDS011;51813;40.666;16.602;2023-05-10T12:22:56;7.03;;;4.97;;
65230;SDS011;51813;40.666;16.602;2023-05-10T12:25:24;5.72;;;4.47;;
65230;SDS011;51813;40.666;16.602;2023-05-10T12:27:57;7.32;;;4.95;;
65230;SDS011;51813;40.666;16.602;2023-05-10T12:32:49;7.05;;;4.88;;
65230;SDS011;51813;40.666;16.602;2023-05-10T12:35:16;6.38;;;4.50;;
65230;SDS011;51813;40.666;16.602;2023-05-10T12:37:42;7.10;;;4.78;;
65230;SDS011;51813;40.666;16.602;2023-05-10T12:40:09;6.93;;;4.55;;
65230;SDS011;51813;40.666;16.602;2023-05-10T12:42:36;7.18;;;4.57;;
65230;SDS011;51813;40.666;16.602;2023-05-10T12:45:04;7.78;;;4.88;;
65230;SDS011;51813;40.666;16.602;2023-05-10T12:47:31;6.40;;;3.85;;
65230;SDS011;51813;40.666;16.602;2023-05-10T12:49:57;6.07;;;4.60;;
65230;SDS011;51813;40.666;16.602;2023-05-10T12:52:24;8.50;;;5.40;;
65230;SDS011;51813;40.666;16.602;2023-05-10T12:54:51;6.20;;;4.43;;
65230;SDS011;51813;40.666;16.602;2023-05-10T12:57:17;5.40;;;4.20;;
65230;SDS011;51813;40.666;16.602;2023-05-10T12:59:43;7.00;;;4.80;;
65230;SDS011;51813;40.666;16.602;2023-05-10T13:02:09;5.28;;;4.38;;
65230;SDS011;51813;40.666;16.602;2023-05-10T13:04:35;6.57;;;4.38;;
65230;SDS011;51813;40.666;16.602;2023-05-10T13:07:04;5.75;;;4.10;;
65230;SDS011;51813;40.666;16.602;2023-05-10T13:09:33;6.35;;;4.18;;
65230;SDS011;51813;40.666;16.602;2023-05-10T13:11:59;6.75;;;4.43;;
65230;SDS011;51813;40.666;16.602;2023-05-10T13:14:25;5.85;;;4.07;;
65230;SDS011;51813;40.666;16.602;2023-05-10T13:16:50;5.35;;;3.85;;
65230;SDS011;51813;40.666;16.602;2023-05-10T13:19:16;5.88;;;4.15;;
65230;SDS011;51813;40.666;16.602;2023-05-10T13:21:43;5.28;;;4.05;;
65230;SDS011;51813;40.666;16.602;2023-05-10T13:24:09;8.63;;;4.68;;
65230;SDS011;51813;40.666;16.602;2023-05-10T13:26:35;6.03;;;4.43;;
65230;SDS011;51813;40.666;16.602;2023-05-10T13:29:02;6.00;;;4.20;;
65230;SDS011;51813;40.666;16.602;2023-05-10T13:31:28;7.10;;;4.18;;
65230;SDS011;51813;40.666;16.602;2023-05-10T13:33:53;6.00;;;4.45;;
65230;SDS011;51813;40.666;16.602;2023-05-10T13:36:19;5.50;;;4.20;;
65230;SDS011;51813;40.666;16.602;2023-05-10T13:38:45;6.53;;;4.38;;
65230;SDS011;51813;40.666;16.602;2023-05-10T13:41:11;5.97;;;4.20;;
65230;SDS011;51813;40.666;16.602;2023-05-10T13:43:36;5.57;;;4.00;;
65230;SDS011;51813;40.666;16.602;2023-05-10T13:46:02;6.05;;;3.97;;
65230;SDS011;51813;40.666;16.602;2023-05-10T13:48:28;5.10;;;3.80;;
65230;SDS011;51813;40.666;16.602;2023-05-10T13:50:54;6.07;;;4.10;;
65230;SDS011;51813;40.666;16.602;2023-05-10T13:53:19;5.53;;;3.72;;
65230;SDS011;51813;40.666;16.602;2023-05-10T13:55:45;5.10;;;3.75;;
65230;SDS011;51813;40.666;16.602;2023-05-10T13:58:12;5.93;;;3.80;;
65230;SDS011;51813;40.666;16.602;2023-05-10T14:00:37;5.47;;;4.00;;
65230;SDS011;51813;40.666;16.602;2023-05-10T14:03:03;5.43;;;3.83;;
65230;SDS011;51813;40.666;16.602;2023-05-10T14:05:30;4.78;;;3.70;;
65230;SDS011;51813;40.666;16.602;2023-05-10T14:07:56;4.50;;;3.78;;
65230;SDS011;51813;40.666;16.602;2023-05-10T14:10:22;5.07;;;3.53;;
65230;SDS011;51813;40.666;16.602;2023-05-10T14:12:47;5.25;;;3.80;;
65230;SDS011;51813;40.666;16.602;2023-05-10T14:15:13;5.88;;;3.58;;
65230;SDS011;51813;40.666;16.602;2023-05-10T14:17:39;5.85;;;3.92;;
65230;SDS011;51813;40.666;16.602;2023-05-10T14:20:05;6.95;;;3.80;;
65230;SDS011;51813;40.666;16.602;2023-05-10T14:22:31;5.28;;;3.85;;
65230;SDS011;51813;40.666;16.602;2023-05-10T14:24:56;4.82;;;3.45;;
65230;SDS011;51813;40.666;16.602;2023-05-10T14:27:23;5.40;;;3.67;;
65230;SDS011;51813;40.666;16.602;2023-05-10T14:29:48;4.85;;;3.50;;
65230;SDS011;51813;40.666;16.602;2023-05-10T14:32:14;5.13;;;3.50;;
65230;SDS011;51813;40.666;16.602;2023-05-10T14:34:40;6.10;;;3.83;;
65230;SDS011;51813;40.666;16.602;2023-05-10T14:37:05;9.65;;;4.45;;
65230;SDS011;51813;40.666;16.602;2023-05-10T14:39:31;6.45;;;4.13;;
65230;SDS011;51813;40.666;16.602;2023-05-10T14:41:58;4.80;;;3.97;;
65230;SDS011;51813;40.666;16.602;2023-05-10T14:44:23;5.10;;;3.90;;
65230;SDS011;51813;40.666;16.602;2023-05-10T14:46:50;4.93;;;3.75;;
65230;SDS011;51813;40.666;16.602;2023-05-10T14:49:16;4.45;;;3.67;;
65230;SDS011;51813;40.666;16.602;2023-05-10T14:51:42;5.50;;;3.80;;
65230;SDS011;51813;40.666;16.602;2023-05-10T14:54:07;4.78;;;3.55;;
65230;SDS011;51813;40.666;16.602;2023-05-10T14:56:33;5.47;;;3.80;;
65230;SDS011;51813;40.666;16.602;2023-05-10T14:58:59;9.63;;;4.20;;
65230;SDS011;51813;40.666;16.602;2023-05-10T15:01:25;5.55;;;3.65;;
65230;SDS011;51813;40.666;16.602;2023-05-10T15:03:51;4.75;;;3.60;;
65230;SDS011;51813;40.666;16.602;2023-05-10T15:06:20;8.68;;;3.83;;
65230;SDS011;51813;40.666;16.602;2023-05-10T15:08:50;6.65;;;3.55;;
65230;SDS011;51813;40.666;16.602;2023-05-10T15:11:16;6.68;;;3.60;;
65230;SDS011;51813;40.666;16.602;2023-05-10T15:13:42;4.63;;;3.60;;
65230;SDS011;51813;40.666;16.602;2023-05-10T15:16:08;5.78;;;3.88;;
65230;SDS011;51813;40.666;16.602;2023-05-10T15:18:33;5.65;;;3.97;;
65230;SDS011;51813;40.666;16.602;2023-05-10T15:20:59;4.78;;;3.40;;
65230;SDS011;51813;40.666;16.602;2023-05-10T15:23:25;5.40;;;3.70;;
65230;SDS011;51813;40.666;16.602;2023-05-10T15:25:51;6.00;;;3.72;;
65230;SDS011;51813;40.666;16.602;2023-05-10T15:28:20;4.60;;;3.33;;
65230;SDS011;51813;40.666;16.602;2023-05-10T15:30:46;5.82;;;3.60;;